sensor_id;sensor_type;location;lat;lon;timestamp;pressure;altitude;pressure_sealevel;temperature;humidity
8703;BME280;9002;42.708;23.186;2023-05-23T00:01:32;94911.53;;;16.30;nan
8703;BME280;9002;42.708;23.186;2023-05-23T00:08:55;94903.59;;;15.57;nan
8703;BME280;9002;42.708;23.186;2023-05-23T00:35:55;94914.91;;;15.94;nan
8703;BME280;9002;42.708;23.186;2023-05-23T00:57:58;94892.69;;;16.46;nan
8703;BME280;9002;42.708;23.186;2023-05-23T01:00:25;94899.19;;;16.37;nan
8703;BME280;9002;42.708;23.186;2023-05-23T01:05:19;94901.53;;;16.45;nan
8703;BME280;9002;42.708;23.186;2023-05-23T01:07:49;94904.28;;;16.50;nan
8703;BME280;9002;42.708;23.186;2023-05-23T01:25:53;94909.78;;;15.24;nan
8703;BME280;9002;42.708;23.186;2023-05-23T01:28:31;94910.50;;;15.38;nan
8703;BME280;9002;42.708;23.186;2023-05-23T01:31:01;94909.41;;;15.20;nan
8703;BME280;9002;42.708;23.186;2023-05-23T01:35:59;94909.78;;;15.56;nan
8703;BME280;9002;42.708;23.186;2023-05-23T01:38:27;94892.91;;;15.83;nan
8703;BME280;9002;42.708;23.186;2023-05-23T01:40:54;94904.38;;;15.57;nan
8703;BME280;9002;42.708;23.186;2023-05-23T01:43:21;94901.00;;;15.75;nan
8703;BME280;9002;42.708;23.186;2023-05-23T01:45:51;94903.41;;;15.76;nan
8703;BME280;9002;42.708;23.186;2023-05-23T01:48:20;94900.63;;;15.71;nan
8703;BME280;9002;42.708;23.186;2023-05-23T01:50:47;94889.06;;;15.85;nan
8703;BME280;9002;42.708;23.186;2023-05-23T01:55:43;94879.16;;;15.94;nan
8703;BME280;9002;42.708;23.186;2023-05-23T02:00:38;94888.13;;;15.80;nan
8703;BME280;9002;42.708;23.186;2023-05-23T02:03:06;94887.00;;;15.69;nan
8703;BME280;9002;42.708;23.186;2023-05-23T02:05:33;94887.75;;;15.76;nan
8703;BME280;9002;42.708;23.186;2023-05-23T02:07:59;94889.34;;;15.77;nan
8703;BME280;9002;42.708;23.186;2023-05-23T02:10:26;94880.88;;;15.82;nan
8703;BME280;9002;42.708;23.186;2023-05-23T02:12:53;94902.88;;;15.93;nan
8703;BME280;9002;42.708;23.186;2023-05-23T02:15:20;94897.59;;;15.99;nan
8703;BME280;9002;42.708;23.186;2023-05-23T02:17:47;94897.59;;;15.99;nan
8703;BME280;9002;42.708;23.186;2023-05-23T02:20:15;94887.69;;;15.83;nan
8703;BME280;9002;42.708;23.186;2023-05-23T02:22:43;94887.00;;;15.69;nan
8703;BME280;9002;42.708;23.186;2023-05-23T02:25:10;94884.91;;;15.60;nan
8703;BME280;9002;42.708;23.186;2023-05-23T02:27:37;94889.41;;;15.71;nan
8703;BME280;9002;42.708;23.186;2023-05-23T02:30:05;94884.00;;;15.91;nan
8703;BME280;9002;42.708;23.186;2023-05-23T02:32:32;94891.44;;;16.12;nan
8703;BME280;9002;42.708;23.186;2023-05-23T02:37:28;94889.91;;;16.04;nan
8703;BME280;9002;42.708;23.186;2023-05-23T02:39:55;94889.84;;;16.11;nan
8703;BME280;9002;42.708;23.186;2023-05-23T02:42:22;94883.41;;;16.13;nan
8703;BME280;9002;42.708;23.186;2023-05-23T02:47:15;94884.25;;;16.07;nan
8703;BME280;9002;42.708;23.186;2023-05-23T02:49:42;94886.44;;;16.29;nan
8703;BME280;9002;42.708;23.186;2023-05-23T02:52:09;94885.41;;;16.48;nan
8703;BME280;9002;42.708;23.186;2023-05-23T02:54:37;94872.50;;;16.53;nan
8703;BME280;9002;42.708;23.186;2023-05-23T02:57:04;94877.59;;;16.30;nan
8703;BME280;9002;42.708;23.186;2023-05-23T03:01:57;94885.63;;;16.28;nan
8703;BME280;9002;42.708;23.186;2023-05-23T03:04:24;94887.00;;;16.49;nan
8703;BME280;9002;42.708;23.186;2023-05-23T03:06:52;94876.06;;;16.59;nan
8703;BME280;9002;42.708;23.186;2023-05-23T03:09:19;94880.00;;;16.13;nan
8703;BME280;9002;42.708;23.186;2023-05-23T03:11:47;94880.94;;;15.75;nan
8703;BME280;9002;42.708;23.186;2023-05-23T03:14:15;94882.78;;;15.93;nan
8703;BME280;9002;42.708;23.186;2023-05-23T03:16:42;94885.00;;;16.14;nan
8703;BME280;9002;42.708;23.186;2023-05-23T03:19:09;94889.47;;;16.07;nan
8703;BME280;9002;42.708;23.186;2023-05-23T03:21:36;94883.91;;;16.04;nan
8703;BME280;9002;42.708;23.186;2023-05-23T03:24:03;94888.88;;;16.24;nan
8703;BME280;9002;42.708;23.186;2023-05-23T03:26:30;94892.69;;;16.09;nan
8703;BME280;9002;42.708;23.186;2023-05-23T03:28:58;94891.31;;;15.82;nan
8703;BME280;9002;42.708;23.186;2023-05-23T03:31:25;94891.50;;;16.05;nan
8703;BME280;9002;42.708;23.186;2023-05-23T03:38:46;94907.66;;;15.96;nan
8703;BME280;9002;42.708;23.186;2023-05-23T03:41:13;94904.50;;;16.30;nan
8703;BME280;9002;42.708;23.186;2023-05-23T03:43:39;94896.66;;;16.12;nan
8703;BME280;9002;42.708;23.186;2023-05-23T03:46:08;94904.53;;;15.31;nan
8703;BME280;9002;42.708;23.186;2023-05-23T03:51:01;94905.66;;;15.41;nan
8703;BME280;9002;42.708;23.186;2023-05-23T03:53:28;94910.19;;;15.52;nan
8703;BME280;9002;42.708;23.186;2023-05-23T03:55:55;94913.47;;;15.73;nan
8703;BME280;9002;42.708;23.186;2023-05-23T03:58:22;94918.88;;;15.46;nan
8703;BME280;9002;42.708;23.186;2023-05-23T04:00:48;94923.06;;;15.16;nan
8703;BME280;9002;42.708;23.186;2023-05-23T04:05:45;94917.34;;;14.56;nan
8703;BME280;9002;42.708;23.186;2023-05-23T04:08:12;94910.28;;;15.08;nan
8703;BME280;9002;42.708;23.186;2023-05-23T04:10:40;94915.44;;;15.14;nan
8703;BME280;9002;42.708;23.186;2023-05-23T04:13:06;94913.44;;;15.16;nan
8703;BME280;9002;42.708;23.186;2023-05-23T04:15:34;94915.91;;;15.05;nan
8703;BME280;9002;42.708;23.186;2023-05-23T04:18:00;94915.50;;;15.08;nan
8703;BME280;9002;42.708;23.186;2023-05-23T04:20:29;94905.97;;;14.95;nan
8703;BME280;9002;42.708;23.186;2023-05-23T04:22:56;94894.09;;;15.31;nan
8703;BME280;9002;42.708;23.186;2023-05-23T04:25:23;94908.88;;;15.43;nan
8703;BME280;9002;42.708;23.186;2023-05-23T04:27:50;94917.78;;;15.29;nan
8703;BME280;9002;42.708;23.186;2023-05-23T04:30:18;94918.38;;;15.31;nan
8703;BME280;9002;42.708;23.186;2023-05-23T04:37:40;94912.94;;;15.89;nan
8703;BME280;9002;42.708;23.186;2023-05-23T04:40:08;94916.59;;;15.81;nan
8703;BME280;9002;42.708;23.186;2023-05-23T04:42:34;94923.78;;;16.11;nan
8703;BME280;9002;42.708;23.186;2023-05-23T04:47:28;94930.09;;;16.40;nan
8703;BME280;9002;42.708;23.186;2023-05-23T04:49:59;94924.88;;;16.22;nan
8703;BME280;9002;42.708;23.186;2023-05-23T04:52:26;94929.06;;;16.23;nan
8703;BME280;9002;42.708;23.186;2023-05-23T04:54:55;94930.22;;;16.27;nan
8703;BME280;9002;42.708;23.186;2023-05-23T04:59:48;94936.63;;;15.88;nan
8703;BME280;9002;42.708;23.186;2023-05-23T05:02:15;94924.88;;;15.47;nan
8703;BME280;9002;42.708;23.186;2023-05-23T05:04:42;94924.84;;;15.53;nan
8703;BME280;9002;42.708;23.186;2023-05-23T05:07:10;94933.44;;;15.85;nan
8703;BME280;9002;42.708;23.186;2023-05-23T05:09:36;94938.75;;;15.72;nan
8703;BME280;9002;42.708;23.186;2023-05-23T05:16:58;94940.94;;;16.80;nan
8703;BME280;9002;42.708;23.186;2023-05-23T05:19:27;94937.94;;;16.95;nan
8703;BME280;9002;42.708;23.186;2023-05-23T05:21:53;94951.59;;;16.97;nan
8703;BME280;9002;42.708;23.186;2023-05-23T05:24:22;94944.47;;;16.86;nan
8703;BME280;9002;42.708;23.186;2023-05-23T05:26:49;94947.47;;;16.89;nan
8703;BME280;9002;42.708;23.186;2023-05-23T05:29:17;94952.34;;;16.67;nan
8703;BME280;9002;42.708;23.186;2023-05-23T05:34:11;94946.34;;;16.67;nan
8703;BME280;9002;42.708;23.186;2023-05-23T05:36:38;94947.97;;;16.61;nan
8703;BME280;9002;42.708;23.186;2023-05-23T05:39:10;94945.78;;;16.76;nan
8703;BME280;9002;42.708;23.186;2023-05-23T05:41:38;94956.72;;;16.73;nan
8703;BME280;9002;42.708;23.186;2023-05-23T05:44:05;94946.72;;;17.00;nan
8703;BME280;9002;42.708;23.186;2023-05-23T05:46:34;94948.50;;;17.18;nan
8703;BME280;9002;42.708;23.186;2023-05-23T05:49:01;94948.03;;;17.51;nan
8703;BME280;9002;42.708;23.186;2023-05-23T05:51:27;94950.06;;;17.49;nan
8703;BME280;9002;42.708;23.186;2023-05-23T05:56:22;94940.31;;;17.86;nan
8703;BME280;9002;42.708;23.186;2023-05-23T05:58:49;94957.03;;;17.85;nan
8703;BME280;9002;42.708;23.186;2023-05-23T06:01:16;94955.91;;;18.16;nan
8703;BME280;9002;42.708;23.186;2023-05-23T06:03:44;94952.16;;;18.24;nan
8703;BME280;9002;42.708;23.186;2023-05-23T06:06:11;94953.50;;;18.38;nan
8703;BME280;9002;42.708;23.186;2023-05-23T06:08:37;94962.41;;;18.37;nan
8703;BME280;9002;42.708;23.186;2023-05-23T06:11:04;94959.63;;;18.55;nan
8703;BME280;9002;42.708;23.186;2023-05-23T06:13:31;94962.16;;;18.62;nan
8703;BME280;9002;42.708;23.186;2023-05-23T06:15:58;94961.22;;;18.56;nan
8703;BME280;9002;42.708;23.186;2023-05-23T06:18:25;94966.72;;;18.66;nan
8703;BME280;9002;42.708;23.186;2023-05-23T06:20:53;94957.50;;;17.64;nan
8703;BME280;9002;42.708;23.186;2023-05-23T06:23:20;94960.09;;;18.05;nan
8703;BME280;9002;42.708;23.186;2023-05-23T06:25:47;94923.06;;;18.48;nan
8703;BME280;9002;42.708;23.186;2023-05-23T06:28:13;94955.84;;;18.86;nan
8703;BME280;9002;42.708;23.186;2023-05-23T06:30:40;94967.25;;;19.20;nan
8703;BME280;9002;42.708;23.186;2023-05-23T06:33:07;94950.88;;;19.41;nan
8703;BME280;9002;42.708;23.186;2023-05-23T06:35:34;94959.38;;;18.92;nan
8703;BME280;9002;42.708;23.186;2023-05-23T06:38:02;94955.47;;;19.06;nan
8703;BME280;9002;42.708;23.186;2023-05-23T06:40:29;94966.94;;;18.76;nan
8703;BME280;9002;42.708;23.186;2023-05-23T06:42:56;94950.84;;;19.13;nan
8703;BME280;9002;42.708;23.186;2023-05-23T06:45:23;94948.78;;;19.15;nan
8703;BME280;9002;42.708;23.186;2023-05-23T06:47:50;94940.72;;;18.53;nan
8703;BME280;9002;42.708;23.186;2023-05-23T06:50:16;94944.50;;;18.69;nan
8703;BME280;9002;42.708;23.186;2023-05-23T06:52:44;94948.69;;;18.58;nan
8703;BME280;9002;42.708;23.186;2023-05-23T06:55:13;94952.78;;;18.77;nan
8703;BME280;9002;42.708;23.186;2023-05-23T06:57:43;94951.19;;;18.53;nan
8703;BME280;9002;42.708;23.186;2023-05-23T07:00:12;94944.16;;;18.19;nan
8703;BME280;9002;42.708;23.186;2023-05-23T07:02:39;94939.28;;;18.22;nan
8703;BME280;9002;42.708;23.186;2023-05-23T07:05:06;94943.38;;;18.41;nan
8703;BME280;9002;42.708;23.186;2023-05-23T07:07:33;94941.19;;;18.50;nan
8703;BME280;9002;42.708;23.186;2023-05-23T07:10:00;94939.56;;;18.84;nan
8703;BME280;9002;42.708;23.186;2023-05-23T07:12:28;94939.34;;;18.86;nan
8703;BME280;9002;42.708;23.186;2023-05-23T07:14:55;94936.97;;;18.49;nan
8703;BME280;9002;42.708;23.186;2023-05-23T07:17:22;94928.63;;;18.75;nan
8703;BME280;9002;42.708;23.186;2023-05-23T07:19:49;94923.06;;;18.48;nan
8703;BME280;9002;42.708;23.186;2023-05-23T07:22:15;94917.13;;;18.76;nan
8703;BME280;9002;42.708;23.186;2023-05-23T07:24:42;94914.28;;;19.06;nan
8703;BME280;9002;42.708;23.186;2023-05-23T07:27:09;94913.56;;;18.83;nan
8703;BME280;9002;42.708;23.186;2023-05-23T07:29:37;94924.84;;;18.83;nan
8703;BME280;9002;42.708;23.186;2023-05-23T07:32:05;94908.41;;;19.16;nan
8703;BME280;9002;42.708;23.186;2023-05-23T07:34:32;94913.72;;;18.76;nan
8703;BME280;9002;42.708;23.186;2023-05-23T07:36:59;94907.28;;;19.12;nan
8703;BME280;9002;42.708;23.186;2023-05-23T07:39:25;94903.44;;;19.60;nan
8703;BME280;9002;42.708;23.186;2023-05-23T07:41:52;94898.69;;;19.57;nan
8703;BME280;9002;42.708;23.186;2023-05-23T07:44:19;94902.66;;;19.59;nan
8703;BME280;9002;42.708;23.186;2023-05-23T07:49:14;94900.84;;;19.48;nan
8703;BME280;9002;42.708;23.186;2023-05-23T07:51:41;94897.72;;;19.96;nan
8703;BME280;9002;42.708;23.186;2023-05-23T07:54:08;94896.75;;;19.86;nan
8703;BME280;9002;42.708;23.186;2023-05-23T07:56:34;94907.38;;;19.45;nan
8703;BME280;9002;42.708;23.186;2023-05-23T07:59:03;94896.16;;;19.33;nan
8703;BME280;9002;42.708;23.186;2023-05-23T08:01:29;94890.53;;;19.13;nan
8703;BME280;9002;42.708;23.186;2023-05-23T08:03:58;94893.94;;;18.97;nan
8703;BME280;9002;42.708;23.186;2023-05-23T08:06:24;94892.88;;;19.26;nan
8703;BME280;9002;42.708;23.186;2023-05-23T08:08:51;94889.44;;;19.71;nan
8703;BME280;9002;42.708;23.186;2023-05-23T08:11:18;94886.88;;;20.09;nan
8703;BME280;9002;42.708;23.186;2023-05-23T08:13:45;94888.91;;;20.24;nan
8703;BME280;9002;42.708;23.186;2023-05-23T08:18:38;94889.69;;;20.25;nan
8703;BME280;9002;42.708;23.186;2023-05-23T08:23:33;94883.88;;;19.84;nan
8703;BME280;9002;42.708;23.186;2023-05-23T08:26:00;94889.81;;;19.96;nan
8703;BME280;9002;42.708;23.186;2023-05-23T08:28:27;94866.59;;;20.43;nan
8703;BME280;9002;42.708;23.186;2023-05-23T08:33:21;94882.66;;;20.47;nan
8703;BME280;9002;42.708;23.186;2023-05-23T08:35:48;94882.50;;;20.37;nan
8703;BME280;9002;42.708;23.186;2023-05-23T08:38:16;94878.03;;;20.37;nan
8703;BME280;9002;42.708;23.186;2023-05-23T08:40:49;94875.41;;;20.76;nan
8703;BME280;9002;42.708;23.186;2023-05-23T08:43:16;94866.47;;;20.55;nan
8703;BME280;9002;42.708;23.186;2023-05-23T08:45:44;94874.75;;;20.91;nan
8703;BME280;9002;42.708;23.186;2023-05-23T08:48:12;94875.25;;;21.36;nan
8703;BME280;9002;42.708;23.186;2023-05-23T08:50:42;94866.16;;;21.22;nan
8703;BME280;9002;42.708;23.186;2023-05-23T08:53:15;94874.84;;;21.23;nan
8703;BME280;9002;42.708;23.186;2023-05-23T08:55:45;94865.00;;;21.13;nan
8703;BME280;9002;42.708;23.186;2023-05-23T08:58:13;94867.13;;;21.75;nan
8703;BME280;9002;42.708;23.186;2023-05-23T09:00:41;94872.13;;;21.71;nan
8703;BME280;9002;42.708;23.186;2023-05-23T09:03:09;94867.06;;;22.02;nan
8703;BME280;9002;42.708;23.186;2023-05-23T09:05:36;94864.91;;;21.94;nan
8703;BME280;9002;42.708;23.186;2023-05-23T09:08:03;94862.53;;;21.92;nan
8703;BME280;9002;42.708;23.186;2023-05-23T09:10:31;94864.25;;;21.77;nan
8703;BME280;9002;42.708;23.186;2023-05-23T09:12:58;94858.81;;;21.56;nan
8703;BME280;9002;42.708;23.186;2023-05-23T09:15:25;94850.84;;;21.78;nan
8703;BME280;9002;42.708;23.186;2023-05-23T09:17:58;94853.22;;;22.22;nan
8703;BME280;9002;42.708;23.186;2023-05-23T09:20:27;94852.41;;;22.73;nan
8703;BME280;9002;42.708;23.186;2023-05-23T09:22:54;94848.25;;;22.88;nan
8703;BME280;9002;42.708;23.186;2023-05-23T09:25:21;94836.44;;;23.11;nan
8703;BME280;9002;42.708;23.186;2023-05-23T09:27:51;94839.63;;;23.48;nan
8703;BME280;9002;42.708;23.186;2023-05-23T09:30:18;94839.63;;;23.94;nan
8703;BME280;9002;42.708;23.186;2023-05-23T09:32:57;94845.22;;;23.57;nan
8703;BME280;9002;42.708;23.186;2023-05-23T09:35:27;94834.06;;;23.24;nan
8703;BME280;9002;42.708;23.186;2023-05-23T09:40:28;94835.31;;;22.86;nan
8703;BME280;9002;42.708;23.186;2023-05-23T09:43:01;94830.34;;;23.00;nan
8703;BME280;9002;42.708;23.186;2023-05-23T09:45:29;94832.03;;;22.64;nan
8703;BME280;9002;42.708;23.186;2023-05-23T09:47:56;94830.09;;;23.07;nan
8703;BME280;9002;42.708;23.186;2023-05-23T09:50:30;94822.44;;;23.30;nan
8703;BME280;9002;42.708;23.186;2023-05-23T09:52:57;94820.09;;;23.80;nan
8703;BME280;9002;42.708;23.186;2023-05-23T09:55:24;94822.50;;;23.61;nan
8703;BME280;9002;42.708;23.186;2023-05-23T09:57:52;94806.09;;;23.49;nan
8703;BME280;9002;42.708;23.186;2023-05-23T10:00:22;94808.75;;;23.54;nan
8703;BME280;9002;42.708;23.186;2023-05-23T10:03:05;94806.34;;;23.32;nan
8703;BME280;9002;42.708;23.186;2023-05-23T10:05:40;94824.56;;;23.33;nan
8703;BME280;9002;42.708;23.186;2023-05-23T10:08:13;94809.03;;;23.67;nan
8703;BME280;9002;42.708;23.186;2023-05-23T10:13:59;94805.53;;;23.87;nan
8703;BME280;9002;42.708;23.186;2023-05-23T10:16:32;94812.94;;;23.90;nan
8703;BME280;9002;42.708;23.186;2023-05-23T10:19:06;94812.13;;;23.95;nan
8703;BME280;9002;42.708;23.186;2023-05-23T10:21:40;94799.66;;;24.16;nan
8703;BME280;9002;42.708;23.186;2023-05-23T10:24:10;94804.78;;;24.66;nan
8703;BME280;9002;42.708;23.186;2023-05-23T10:26:38;94788.31;;;24.10;nan
8703;BME280;9002;42.708;23.186;2023-05-23T10:29:05;94802.38;;;23.85;nan
8703;BME280;9002;42.708;23.186;2023-05-23T10:31:34;94791.16;;;24.34;nan
8703;BME280;9002;42.708;23.186;2023-05-23T10:34:03;94793.75;;;24.93;nan
8703;BME280;9002;42.708;23.186;2023-05-23T10:36:41;94789.84;;;24.86;nan
8703;BME280;9002;42.708;23.186;2023-05-23T10:41:45;94798.22;;;25.08;nan
8703;BME280;9002;42.708;23.186;2023-05-23T10:44:20;94786.81;;;24.58;nan
8703;BME280;9002;42.708;23.186;2023-05-23T10:46:51;94783.66;;;24.56;nan
8703;BME280;9002;42.708;23.186;2023-05-23T10:49:19;94788.19;;;25.00;nan
8703;BME280;9002;42.708;23.186;2023-05-23T10:51:48;94788.13;;;25.10;nan
8703;BME280;9002;42.708;23.186;2023-05-23T10:56:45;94776.19;;;25.47;nan
8703;BME280;9002;42.708;23.186;2023-05-23T10:59:19;94772.38;;;25.58;nan
8703;BME280;9002;42.708;23.186;2023-05-23T11:01:51;94776.50;;;25.06;nan
8703;BME280;9002;42.708;23.186;2023-05-23T11:04:24;94781.84;;;25.69;nan
8703;BME280;9002;42.708;23.186;2023-05-23T11:06:53;94749.13;;;25.50;nan
8703;BME280;9002;42.708;23.186;2023-05-23T11:09:20;94767.25;;;25.72;nan
8703;BME280;9002;42.708;23.186;2023-05-23T11:11:54;94768.69;;;25.54;nan
8703;BME280;9002;42.708;23.186;2023-05-23T11:17:29;94765.72;;;26.42;nan
8703;BME280;9002;42.708;23.186;2023-05-23T11:19:58;94759.59;;;26.18;nan
8703;BME280;9002;42.708;23.186;2023-05-23T11:22:28;94760.78;;;26.54;nan
8703;BME280;9002;42.708;23.186;2023-05-23T11:24:56;94764.56;;;26.24;nan
8703;BME280;9002;42.708;23.186;2023-05-23T11:27:27;94762.31;;;26.37;nan
8703;BME280;9002;42.708;23.186;2023-05-23T11:29:59;94764.66;;;26.14;nan
8703;BME280;9002;42.708;23.186;2023-05-23T11:32:30;94761.28;;;26.09;nan
8703;BME280;9002;42.708;23.186;2023-05-23T11:35:00;94759.25;;;26.00;nan
8703;BME280;9002;42.708;23.186;2023-05-23T11:37:28;94741.25;;;26.64;nan
8703;BME280;9002;42.708;23.186;2023-05-23T11:39:55;94742.44;;;26.10;nan
8703;BME280;9002;42.708;23.186;2023-05-23T11:42:22;94742.03;;;26.22;nan
8703;BME280;9002;42.708;23.186;2023-05-23T11:44:49;94727.56;;;26.38;nan
8703;BME280;9002;42.708;23.186;2023-05-23T11:47:17;94726.28;;;26.54;nan
8703;BME280;9002;42.708;23.186;2023-05-23T11:49:46;94734.19;;;26.97;nan
8703;BME280;9002;42.708;23.186;2023-05-23T11:52:13;94727.84;;;26.93;nan
8703;BME280;9002;42.708;23.186;2023-05-23T11:54:40;94746.13;;;26.94;nan
8703;BME280;9002;42.708;23.186;2023-05-23T11:57:08;94728.91;;;27.43;nan
8703;BME280;9002;42.708;23.186;2023-05-23T11:59:35;94730.50;;;27.12;nan
8703;BME280;9002;42.708;23.186;2023-05-23T12:02:01;94731.94;;;27.04;nan
8703;BME280;9002;42.708;23.186;2023-05-23T12:04:28;94737.38;;;26.75;nan
8703;BME280;9002;42.708;23.186;2023-05-23T12:06:57;94726.84;;;26.89;nan
8703;BME280;9002;42.708;23.186;2023-05-23T12:09:23;94725.22;;;27.25;nan
8703;BME280;9002;42.708;23.186;2023-05-23T12:11:51;94720.84;;;28.08;nan
8703;BME280;9002;42.708;23.186;2023-05-23T12:14:17;94712.16;;;28.03;nan
8703;BME280;9002;42.708;23.186;2023-05-23T12:16:45;94691.28;;;28.10;nan
8703;BME280;9002;42.708;23.186;2023-05-23T12:19:12;94677.69;;;27.98;nan
8703;BME280;9002;42.708;23.186;2023-05-23T12:21:41;94707.03;;;28.06;nan
8703;BME280;9002;42.708;23.186;2023-05-23T12:24:17;94699.06;;;28.06;nan
8703;BME280;9002;42.708;23.186;2023-05-23T12:26:48;94690.63;;;28.54;nan
8703;BME280;9002;42.708;23.186;2023-05-23T12:29:18;94688.16;;;28.93;nan
8703;BME280;9002;42.708;23.186;2023-05-23T12:31:50;94684.81;;;29.10;nan
8703;BME280;9002;42.708;23.186;2023-05-23T12:34:19;94688.34;;;29.42;nan
8703;BME280;9002;42.708;23.186;2023-05-23T12:36:46;94686.38;;;28.89;nan
8703;BME280;9002;42.708;23.186;2023-05-23T12:39:23;94685.03;;;28.78;nan
8703;BME280;9002;42.708;23.186;2023-05-23T12:44:29;94677.59;;;28.88;nan
8703;BME280;9002;42.708;23.186;2023-05-23T12:46:56;94679.44;;;29.02;nan
8703;BME280;9002;42.708;23.186;2023-05-23T12:49:23;94677.50;;;28.93;nan
8703;BME280;9002;42.708;23.186;2023-05-23T12:51:50;94675.75;;;29.11;nan
8703;BME280;9002;42.708;23.186;2023-05-23T12:54:18;94655.09;;;29.48;nan
8703;BME280;9002;42.708;23.186;2023-05-23T12:56:45;94679.84;;;29.71;nan
8703;BME280;9002;42.708;23.186;2023-05-23T12:59:12;94673.16;;;30.56;nan
8703;BME280;9002;42.708;23.186;2023-05-23T13:01:39;94656.38;;;30.73;nan
8703;BME280;9002;42.708;23.186;2023-05-23T13:04:06;94660.94;;;30.72;nan
8703;BME280;9002;42.708;23.186;2023-05-23T13:06:32;94651.91;;;31.84;nan
8703;BME280;9002;42.708;23.186;2023-05-23T13:08:59;94646.78;;;32.50;nan
8703;BME280;9002;42.708;23.186;2023-05-23T13:11:28;94647.59;;;31.53;nan
8703;BME280;9002;42.708;23.186;2023-05-23T13:13:55;94638.75;;;33.25;nan
8703;BME280;9002;42.708;23.186;2023-05-23T13:19:05;94629.50;;;38.26;nan
8703;BME280;9002;42.708;23.186;2023-05-23T13:21:32;94638.44;;;38.04;nan
8703;BME280;9002;42.708;23.186;2023-05-23T13:23:59;94641.81;;;38.50;nan
8703;BME280;9002;42.708;23.186;2023-05-23T13:26:28;94630.81;;;40.79;nan
8703;BME280;9002;42.708;23.186;2023-05-23T13:28:55;94633.56;;;37.02;nan
8703;BME280;9002;42.708;23.186;2023-05-23T13:31:21;94627.31;;;34.22;nan
8703;BME280;9002;42.708;23.186;2023-05-23T13:33:48;94623.00;;;35.41;nan
8703;BME280;9002;42.708;23.186;2023-05-23T13:36:15;94624.94;;;39.60;nan
8703;BME280;9002;42.708;23.186;2023-05-23T13:38:42;94619.63;;;42.76;nan
8703;BME280;9002;42.708;23.186;2023-05-23T13:41:09;94620.16;;;43.34;nan
8703;BME280;9002;42.708;23.186;2023-05-23T13:43:38;94619.88;;;43.76;nan
8703;BME280;9002;42.708;23.186;2023-05-23T13:46:05;94626.44;;;43.20;nan
8703;BME280;9002;42.708;23.186;2023-05-23T13:48:32;94632.28;;;43.85;nan
8703;BME280;9002;42.708;23.186;2023-05-23T13:50:59;94632.56;;;43.38;nan
8703;BME280;9002;42.708;23.186;2023-05-23T13:53:26;94612.91;;;45.22;nan
8703;BME280;9002;42.708;23.186;2023-05-23T13:55:53;94617.25;;;40.83;nan
8703;BME280;9002;42.708;23.186;2023-05-23T13:58:20;94625.78;;;40.85;nan
8703;BME280;9002;42.708;23.186;2023-05-23T14:00:48;94638.56;;;37.65;nan
8703;BME280;9002;42.708;23.186;2023-05-23T14:03:15;94623.03;;;40.12;nan
8703;BME280;9002;42.708;23.186;2023-05-23T14:05:43;94622.84;;;42.46;nan
8703;BME280;9002;42.708;23.186;2023-05-23T14:08:10;94618.19;;;41.44;nan
8703;BME280;9002;42.708;23.186;2023-05-23T14:10:38;94629.13;;;37.55;nan
8703;BME280;9002;42.708;23.186;2023-05-23T14:13:05;94626.31;;;35.50;nan
8703;BME280;9002;42.708;23.186;2023-05-23T14:15:32;94622.25;;;39.23;nan
8703;BME280;9002;42.708;23.186;2023-05-23T14:18:01;94627.06;;;38.70;nan
8703;BME280;9002;42.708;23.186;2023-05-23T14:20:28;94626.63;;;39.02;nan
8703;BME280;9002;42.708;23.186;2023-05-23T14:22:55;94620.97;;;37.29;nan
8703;BME280;9002;42.708;23.186;2023-05-23T14:25:22;94620.63;;;35.24;nan
8703;BME280;9002;42.708;23.186;2023-05-23T14:27:48;94631.28;;;34.00;nan
8703;BME280;9002;42.708;23.186;2023-05-23T14:30:15;94624.78;;;38.19;nan
8703;BME280;9002;42.708;23.186;2023-05-23T14:32:42;94608.22;;;40.65;nan
8703;BME280;9002;42.708;23.186;2023-05-23T14:35:10;94608.06;;;41.30;nan
8703;BME280;9002;42.708;23.186;2023-05-23T14:37:37;94594.94;;;41.68;nan
8703;BME280;9002;42.708;23.186;2023-05-23T14:40:05;94605.81;;;42.07;nan
8703;BME280;9002;42.708;23.186;2023-05-23T14:42:34;94601.16;;;43.23;nan
8703;BME280;9002;42.708;23.186;2023-05-23T14:45:01;94594.59;;;44.17;nan
8703;BME280;9002;42.708;23.186;2023-05-23T14:47:28;94590.28;;;44.20;nan
8703;BME280;9002;42.708;23.186;2023-05-23T14:52:39;94589.63;;;43.57;nan
8703;BME280;9002;42.708;23.186;2023-05-23T14:55:06;94592.16;;;44.26;nan
8703;BME280;9002;42.708;23.186;2023-05-23T14:57:33;94588.91;;;43.97;nan
8703;BME280;9002;42.708;23.186;2023-05-23T15:00:00;94578.88;;;44.28;nan
8703;BME280;9002;42.708;23.186;2023-05-23T15:02:30;94587.78;;;42.70;nan
8703;BME280;9002;42.708;23.186;2023-05-23T15:04:56;94577.34;;;42.36;nan
8703;BME280;9002;42.708;23.186;2023-05-23T15:07:23;94586.53;;;42.78;nan
8703;BME280;9002;42.708;23.186;2023-05-23T15:09:51;94566.97;;;43.67;nan
8703;BME280;9002;42.708;23.186;2023-05-23T15:12:18;94579.00;;;42.12;nan
8703;BME280;9002;42.708;23.186;2023-05-23T15:14:45;94585.44;;;42.72;nan
8703;BME280;9002;42.708;23.186;2023-05-23T15:17:12;94585.50;;;42.58;nan
8703;BME280;9002;42.708;23.186;2023-05-23T15:19:44;94583.25;;;41.99;nan
8703;BME280;9002;42.708;23.186;2023-05-23T15:22:11;94573.84;;;41.08;nan
8703;BME280;9002;42.708;23.186;2023-05-23T15:27:15;94584.81;;;38.62;nan
8703;BME280;9002;42.708;23.186;2023-05-23T15:29:42;94590.91;;;37.76;nan
8703;BME280;9002;42.708;23.186;2023-05-23T15:32:08;94581.16;;;37.94;nan
8703;BME280;9002;42.708;23.186;2023-05-23T15:34:35;94580.63;;;38.38;nan
8703;BME280;9002;42.708;23.186;2023-05-23T15:37:02;94568.56;;;39.77;nan
8703;BME280;9002;42.708;23.186;2023-05-23T15:39:29;94574.38;;;40.34;nan
8703;BME280;9002;42.708;23.186;2023-05-23T15:41:58;94569.91;;;40.04;nan
8703;BME280;9002;42.708;23.186;2023-05-23T15:44:26;94571.72;;;39.86;nan
8703;BME280;9002;42.708;23.186;2023-05-23T15:46:53;94573.38;;;40.01;nan
8703;BME280;9002;42.708;23.186;2023-05-23T15:49:20;94585.00;;;40.02;nan
8703;BME280;9002;42.708;23.186;2023-05-23T15:51:47;94568.09;;;40.26;nan
8703;BME280;9002;42.708;23.186;2023-05-23T15:54:14;94568.72;;;39.50;nan
8703;BME280;9002;42.708;23.186;2023-05-23T15:56:41;94571.25;;;39.33;nan
8703;BME280;9002;42.708;23.186;2023-05-23T15:59:08;94567.59;;;39.51;nan
8703;BME280;9002;42.708;23.186;2023-05-23T16:01:36;94575.47;;;39.26;nan